sensor_id;sensor_type;location;lat;lon;timestamp;pressure;altitude;pressure_sealevel;temperature;humidity
5777;BME280;2914;42.668;23.346;2023-03-14T00:01:52;94714.31;;;7.36;46.34
5777;BME280;2914;42.668;23.346;2023-03-14T00:04:22;94707.25;;;7.08;46.80
5777;BME280;2914;42.668;23.346;2023-03-14T00:06:51;94706.63;;;6.93;47.56
5777;BME280;2914;42.668;23.346;2023-03-14T00:09:21;94702.84;;;6.61;48.51
5777;BME280;2914;42.668;23.346;2023-03-14T00:11:50;94694.30;;;6.35;49.20
5777;BME280;2914;42.668;23.346;2023-03-14T00:14:20;94696.97;;;6.52;48.83
5777;BME280;2914;42.668;23.346;2023-03-14T00:16:49;94688.03;;;6.49;49.06
5777;BME280;2914;42.668;23.346;2023-03-14T00:19:18;94691.05;;;6.61;48.86
5777;BME280;2914;42.668;23.346;2023-03-14T00:21:48;94692.08;;;6.48;48.83
5777;BME280;2914;42.668;23.346;2023-03-14T00:24:17;94687.21;;;6.49;49.66
5777;BME280;2914;42.668;23.346;2023-03-14T00:26:46;94678.12;;;6.11;50.11
5777;BME280;2914;42.668;23.346;2023-03-14T00:29:16;94669.08;;;6.10;50.50
5777;BME280;2914;42.668;23.346;2023-03-14T00:31:45;94674.98;;;6.01;50.65
5777;BME280;2914;42.668;23.346;2023-03-14T00:34:16;94657.66;;;6.17;50.60
5777;BME280;2914;42.668;23.346;2023-03-14T00:36:45;94657.66;;;6.17;50.60
5777;BME280;2914;42.668;23.346;2023-03-14T00:39:15;94655.12;;;6.09;51.14
5777;BME280;2914;42.668;23.346;2023-03-14T00:41:44;94656.06;;;6.33;51.07
5777;BME280;2914;42.668;23.346;2023-03-14T00:44:15;94655.89;;;6.53;49.90
5777;BME280;2914;42.668;23.346;2023-03-14T00:46:45;94651.50;;;6.65;49.24
5777;BME280;2914;42.668;23.346;2023-03-14T00:49:15;94642.70;;;6.77;49.20
5777;BME280;2914;42.668;23.346;2023-03-14T00:51:44;94649.05;;;6.91;49.17
5777;BME280;2914;42.668;23.346;2023-03-14T00:54:14;94649.05;;;6.91;49.17
5777;BME280;2914;42.668;23.346;2023-03-14T00:56:44;94646.06;;;6.96;49.07
5777;BME280;2914;42.668;23.346;2023-03-14T00:59:14;94648.11;;;6.98;49.17
5777;BME280;2914;42.668;23.346;2023-03-14T01:01:44;94640.00;;;6.95;49.82
5777;BME280;2914;42.668;23.346;2023-03-14T01:04:14;94646.44;;;6.97;50.27
5777;BME280;2914;42.668;23.346;2023-03-14T01:06:44;94643.20;;;6.88;50.25
5777;BME280;2914;42.668;23.346;2023-03-14T01:09:14;94635.58;;;6.85;50.27
5777;BME280;2914;42.668;23.346;2023-03-14T01:11:45;94644.02;;;6.83;50.11
5777;BME280;2914;42.668;23.346;2023-03-14T01:17:02;94627.83;;;6.83;49.53
5777;BME280;2914;42.668;23.346;2023-03-14T01:19:31;94627.83;;;6.83;49.53
5777;BME280;2914;42.668;23.346;2023-03-14T01:22:01;94621.27;;;6.89;49.19
5777;BME280;2914;42.668;23.346;2023-03-14T01:27:09;94619.72;;;6.98;49.55
5777;BME280;2914;42.668;23.346;2023-03-14T01:29:39;94605.91;;;6.84;49.58
5777;BME280;2914;42.668;23.346;2023-03-14T01:32:09;94616.86;;;6.84;50.13
5777;BME280;2914;42.668;23.346;2023-03-14T01:34:38;94616.86;;;6.84;50.13
5777;BME280;2914;42.668;23.346;2023-03-14T01:37:08;94613.28;;;6.68;50.12
5777;BME280;2914;42.668;23.346;2023-03-14T01:39:39;94612.42;;;6.73;50.07
5777;BME280;2914;42.668;23.346;2023-03-14T01:42:08;94611.97;;;6.68;50.26
5777;BME280;2914;42.668;23.346;2023-03-14T01:47:30;94603.98;;;6.75;50.21
5777;BME280;2914;42.668;23.346;2023-03-14T01:50:03;94602.06;;;6.66;50.29
5777;BME280;2914;42.668;23.346;2023-03-14T01:52:34;94594.19;;;6.60;50.51
5777;BME280;2914;42.668;23.346;2023-03-14T01:55:09;94596.08;;;6.58;50.56
5777;BME280;2914;42.668;23.346;2023-03-14T01:57:41;94592.15;;;6.58;50.73
5777;BME280;2914;42.668;23.346;2023-03-14T02:00:15;94594.06;;;6.56;51.20
5777;BME280;2914;42.668;23.346;2023-03-14T02:02:46;94587.75;;;6.53;51.41
5777;BME280;2914;42.668;23.346;2023-03-14T02:05:20;94591.80;;;6.51;51.50
5777;BME280;2914;42.668;23.346;2023-03-14T02:07:53;94593.94;;;6.46;52.06
5777;BME280;2914;42.668;23.346;2023-03-14T02:10:25;94593.94;;;6.46;52.06
5777;BME280;2914;42.668;23.346;2023-03-14T02:12:56;94585.81;;;6.38;52.30
5777;BME280;2914;42.668;23.346;2023-03-14T02:15:28;94581.39;;;6.33;53.14
5777;BME280;2914;42.668;23.346;2023-03-14T02:17:59;94587.57;;;6.32;53.72
5777;BME280;2914;42.668;23.346;2023-03-14T02:23:09;94569.22;;;6.20;54.35
5777;BME280;2914;42.668;23.346;2023-03-14T02:28:21;94572.98;;;6.05;54.94
5777;BME280;2914;42.668;23.346;2023-03-14T02:30:50;94575.29;;;5.91;55.45
5777;BME280;2914;42.668;23.346;2023-03-14T02:33:21;94581.09;;;5.89;55.99
5777;BME280;2914;42.668;23.346;2023-03-14T02:35:53;94570.04;;;5.85;56.14
5777;BME280;2914;42.668;23.346;2023-03-14T02:38:27;94580.80;;;5.75;56.33
5777;BME280;2914;42.668;23.346;2023-03-14T02:40:58;94577.20;;;5.65;56.70
5777;BME280;2914;42.668;23.346;2023-03-14T02:43:28;94577.77;;;5.63;57.27
5777;BME280;2914;42.668;23.346;2023-03-14T02:45:57;94593.25;;;5.66;57.42
5777;BME280;2914;42.668;23.346;2023-03-14T02:48:30;94588.87;;;5.66;57.42
5777;BME280;2914;42.668;23.346;2023-03-14T02:51:01;94587.44;;;5.68;57.45
5777;BME280;2914;42.668;23.346;2023-03-14T02:53:32;94586.56;;;5.61;57.63
5777;BME280;2914;42.668;23.346;2023-03-14T02:56:03;94586.31;;;5.59;57.84
5777;BME280;2914;42.668;23.346;2023-03-14T02:58:32;94584.17;;;5.58;57.89
5777;BME280;2914;42.668;23.346;2023-03-14T03:01:02;94589.69;;;5.67;57.44
5777;BME280;2914;42.668;23.346;2023-03-14T03:03:32;94589.44;;;5.64;57.46
5777;BME280;2914;42.668;23.346;2023-03-14T03:06:10;94592.14;;;5.57;57.67
5777;BME280;2914;42.668;23.346;2023-03-14T03:08:40;94584.29;;;5.57;57.70
5777;BME280;2914;42.668;23.346;2023-03-14T03:11:11;94588.24;;;5.63;57.70
5777;BME280;2914;42.668;23.346;2023-03-14T03:13:40;94586.00;;;5.64;57.71
5777;BME280;2914;42.668;23.346;2023-03-14T03:16:10;94585.86;;;5.59;57.64
5777;BME280;2914;42.668;23.346;2023-03-14T03:18:41;94590.09;;;5.55;57.83
5777;BME280;2914;42.668;23.346;2023-03-14T03:21:10;94586.94;;;5.63;57.52
5777;BME280;2914;42.668;23.346;2023-03-14T03:23:39;94586.23;;;5.60;57.38
5777;BME280;2914;42.668;23.346;2023-03-14T03:26:10;94584.92;;;5.60;57.41
5777;BME280;2914;42.668;23.346;2023-03-14T03:28:41;94584.29;;;5.57;57.52
5777;BME280;2914;42.668;23.346;2023-03-14T03:31:11;94587.96;;;5.54;57.75
5777;BME280;2914;42.668;23.346;2023-03-14T03:33:49;94582.61;;;5.56;57.71
5777;BME280;2914;42.668;23.346;2023-03-14T03:36:22;94587.33;;;5.51;57.73
5777;BME280;2914;42.668;23.346;2023-03-14T03:38:53;94587.33;;;5.51;57.73
5777;BME280;2914;42.668;23.346;2023-03-14T03:41:22;94581.96;;;5.47;57.46
5777;BME280;2914;42.668;23.346;2023-03-14T03:43:52;94583.64;;;5.48;57.23
5777;BME280;2914;42.668;23.346;2023-03-14T03:46:23;94583.64;;;5.48;57.31
5777;BME280;2914;42.668;23.346;2023-03-14T03:48:56;94587.80;;;5.44;57.20
5777;BME280;2914;42.668;23.346;2023-03-14T03:51:26;94585.66;;;5.44;57.20
5777;BME280;2914;42.668;23.346;2023-03-14T03:53:58;94595.84;;;5.36;57.26
5777;BME280;2914;42.668;23.346;2023-03-14T03:56:28;94595.84;;;5.36;57.26
5777;BME280;2914;42.668;23.346;2023-03-14T03:58:59;94600.47;;;5.38;57.06
5777;BME280;2914;42.668;23.346;2023-03-14T04:01:29;94600.59;;;5.36;57.02
5777;BME280;2914;42.668;23.346;2023-03-14T04:03:59;94602.00;;;5.35;57.04
5777;BME280;2914;42.668;23.346;2023-03-14T04:06:29;94597.94;;;5.31;57.31
5777;BME280;2914;42.668;23.346;2023-03-14T04:08:58;94599.92;;;5.27;57.64
5777;BME280;2914;42.668;23.346;2023-03-14T04:11:27;94594.14;;;5.16;58.05
5777;BME280;2914;42.668;23.346;2023-03-14T04:16:35;94591.19;;;5.15;58.85
5777;BME280;2914;42.668;23.346;2023-03-14T04:19:04;94595.75;;;5.06;59.20
5777;BME280;2914;42.668;23.346;2023-03-14T04:21:34;94586.19;;;4.99;59.50
5777;BME280;2914;42.668;23.346;2023-03-14T04:24:04;94588.16;;;5.08;59.35
5777;BME280;2914;42.668;23.346;2023-03-14T04:26:34;94577.83;;;4.94;59.83
5777;BME280;2914;42.668;23.346;2023-03-14T04:29:03;94571.77;;;4.93;60.09
5777;BME280;2914;42.668;23.346;2023-03-14T04:31:33;94574.20;;;5.02;60.02
5777;BME280;2914;42.668;23.346;2023-03-14T04:34:03;94564.38;;;5.06;59.68
5777;BME280;2914;42.668;23.346;2023-03-14T04:36:33;94570.20;;;5.09;59.73
5777;BME280;2914;42.668;23.346;2023-03-14T04:39:02;94564.78;;;5.13;59.65
5777;BME280;2914;42.668;23.346;2023-03-14T04:41:32;94560.48;;;5.12;59.78
5777;BME280;2914;42.668;23.346;2023-03-14T04:44:02;94560.41;;;5.19;60.81
5777;BME280;2914;42.668;23.346;2023-03-14T04:46:31;94552.33;;;5.22;60.26
5777;BME280;2914;42.668;23.346;2023-03-14T04:49:01;94555.15;;;5.32;59.54
5777;BME280;2914;42.668;23.346;2023-03-14T04:54:16;94548.12;;;5.32;59.52
5777;BME280;2914;42.668;23.346;2023-03-14T04:56:46;94550.23;;;5.27;59.71
5777;BME280;2914;42.668;23.346;2023-03-14T04:59:15;94543.09;;;5.23;59.74
5777;BME280;2914;42.668;23.346;2023-03-14T05:01:44;94543.41;;;5.19;59.94
5777;BME280;2914;42.668;23.346;2023-03-14T05:04:15;94543.80;;;5.25;59.42
5777;BME280;2914;42.668;23.346;2023-03-14T05:06:44;94540.11;;;5.22;59.54
5777;BME280;2914;42.668;23.346;2023-03-14T05:09:14;94545.23;;;5.24;59.65
5777;BME280;2914;42.668;23.346;2023-03-14T05:11:43;94544.45;;;5.16;59.99
5777;BME280;2914;42.668;23.346;2023-03-14T05:14:14;94542.44;;;5.14;60.13
5777;BME280;2914;42.668;23.346;2023-03-14T05:16:43;94537.63;;;5.08;60.29
5777;BME280;2914;42.668;23.346;2023-03-14T05:19:13;94540.12;;;5.09;60.59
5777;BME280;2914;42.668;23.346;2023-03-14T05:21:43;94544.28;;;5.06;60.83
5777;BME280;2914;42.668;23.346;2023-03-14T05:24:12;94546.07;;;5.06;61.17
5777;BME280;2914;42.668;23.346;2023-03-14T05:26:41;94543.86;;;5.13;61.11
5777;BME280;2914;42.668;23.346;2023-03-14T05:29:10;94544.00;;;5.17;60.82
5777;BME280;2914;42.668;23.346;2023-03-14T05:31:40;94540.11;;;5.22;60.55
5777;BME280;2914;42.668;23.346;2023-03-14T05:34:09;94533.14;;;5.34;61.02
5777;BME280;2914;42.668;23.346;2023-03-14T05:36:39;94531.43;;;5.46;60.63
5777;BME280;2914;42.668;23.346;2023-03-14T05:39:08;94531.68;;;5.73;61.05
5777;BME280;2914;42.668;23.346;2023-03-14T05:41:37;94535.72;;;6.07;61.00
5777;BME280;2914;42.668;23.346;2023-03-14T05:46:50;94538.44;;;6.86;57.88
5777;BME280;2914;42.668;23.346;2023-03-14T05:49:20;94536.74;;;7.13;57.96
5777;BME280;2914;42.668;23.346;2023-03-14T05:54:48;94538.16;;;7.67;54.30
5777;BME280;2914;42.668;23.346;2023-03-14T06:00:04;94539.02;;;8.15;53.76
5777;BME280;2914;42.668;23.346;2023-03-14T06:02:35;94537.63;;;8.32;52.70
5777;BME280;2914;42.668;23.346;2023-03-14T06:05:13;94540.95;;;8.56;52.24
5777;BME280;2914;42.668;23.346;2023-03-14T06:07:47;94537.81;;;8.77;51.22
5777;BME280;2914;42.668;23.346;2023-03-14T06:10:18;94539.75;;;8.91;50.32
5777;BME280;2914;42.668;23.346;2023-03-14T06:13:07;94542.30;;;9.12;50.41
5777;BME280;2914;42.668;23.346;2023-03-14T06:15:55;94536.47;;;8.98;56.97
5777;BME280;2914;42.668;23.346;2023-03-14T06:18:28;94536.78;;;8.32;49.91
5777;BME280;2914;42.668;23.346;2023-03-14T06:20:58;94469.98;;;8.19;50.04
5777;BME280;2914;42.668;23.346;2023-03-14T06:26:38;94551.79;;;9.09;60.60
5777;BME280;2914;42.668;23.346;2023-03-14T06:32:03;94557.39;;;9.25;50.85
5777;BME280;2914;42.668;23.346;2023-03-14T06:37:21;94559.08;;;9.11;49.84
5777;BME280;2914;42.668;23.346;2023-03-14T06:39:50;94540.83;;;9.54;81.96
5777;BME280;2914;42.668;23.346;2023-03-14T06:42:21;94541.04;;;10.55;100.00
5777;BME280;2914;42.668;23.346;2023-03-14T06:44:50;94543.84;;;11.00;92.92
5777;BME280;2914;42.668;23.346;2023-03-14T06:47:39;94546.69;;;10.93;65.91
5777;BME280;2914;42.668;23.346;2023-03-14T06:59:29;94524.75;;;9.67;48.54
5777;BME280;2914;42.668;23.346;2023-03-14T07:01:59;94530.80;;;10.02;48.98
5777;BME280;2914;42.668;23.346;2023-03-14T07:04:29;94521.08;;;10.42;47.86
5777;BME280;2914;42.668;23.346;2023-03-14T07:06:58;94514.38;;;10.58;46.30
5777;BME280;2914;42.668;23.346;2023-03-14T07:09:27;94514.25;;;10.59;44.98
5777;BME280;2914;42.668;23.346;2023-03-14T07:11:57;94512.90;;;10.35;45.31
5777;BME280;2914;42.668;23.346;2023-03-14T07:17:10;94505.75;;;10.65;45.00
5777;BME280;2914;42.668;23.346;2023-03-14T07:19:39;94505.13;;;10.24;44.05
5777;BME280;2914;42.668;23.346;2023-03-14T07:22:09;94510.70;;;9.02;45.64
5777;BME280;2914;42.668;23.346;2023-03-14T07:24:38;94510.59;;;8.88;46.57
5777;BME280;2914;42.668;23.346;2023-03-14T07:27:07;94506.49;;;9.30;48.84
5777;BME280;2914;42.668;23.346;2023-03-14T07:29:36;94506.88;;;9.61;47.49
5777;BME280;2914;42.668;23.346;2023-03-14T07:32:05;94506.94;;;9.45;47.40
5777;BME280;2914;42.668;23.346;2023-03-14T07:34:35;94500.04;;;9.93;46.83
5777;BME280;2914;42.668;23.346;2023-03-14T07:37:04;94498.27;;;9.59;45.77
5777;BME280;2914;42.668;23.346;2023-03-14T07:39:34;94492.94;;;9.10;46.53
5777;BME280;2914;42.668;23.346;2023-03-14T07:42:03;94492.30;;;9.27;46.69
5777;BME280;2914;42.668;23.346;2023-03-14T07:44:32;94490.47;;;9.18;48.32
5777;BME280;2914;42.668;23.346;2023-03-14T07:47:01;94486.02;;;9.73;47.17
5777;BME280;2914;42.668;23.346;2023-03-14T07:49:31;94486.55;;;10.16;46.61
5777;BME280;2914;42.668;23.346;2023-03-14T07:52:00;94478.95;;;10.03;45.05
5777;BME280;2914;42.668;23.346;2023-03-14T07:54:29;94478.34;;;9.56;45.89
5777;BME280;2914;42.668;23.346;2023-03-14T07:56:58;94482.58;;;9.18;46.54
5777;BME280;2914;42.668;23.346;2023-03-14T07:59:28;94472.36;;;9.54;46.81
5777;BME280;2914;42.668;23.346;2023-03-14T08:01:57;94479.14;;;9.37;46.26
5777;BME280;2914;42.668;23.346;2023-03-14T08:04:27;94475.00;;;9.64;45.62
5777;BME280;2914;42.668;23.346;2023-03-14T08:06:56;94477.20;;;9.39;46.58
5777;BME280;2914;42.668;23.346;2023-03-14T08:09:25;94475.81;;;9.45;46.19
5777;BME280;2914;42.668;23.346;2023-03-14T08:11:54;94475.70;;;9.56;45.57
5777;BME280;2914;42.668;23.346;2023-03-14T08:14:24;94472.13;;;10.10;45.69
5777;BME280;2914;42.668;23.346;2023-03-14T08:16:53;94480.25;;;10.70;45.60
5777;BME280;2914;42.668;23.346;2023-03-14T08:19:22;94483.19;;;11.05;45.23
5777;BME280;2914;42.668;23.346;2023-03-14T08:21:52;94477.69;;;11.30;42.99
5777;BME280;2914;42.668;23.346;2023-03-14T08:24:22;94469.82;;;11.52;42.54
5777;BME280;2914;42.668;23.346;2023-03-14T08:26:51;94473.55;;;11.63;42.19
5777;BME280;2914;42.668;23.346;2023-03-14T08:29:20;94468.31;;;11.67;41.78
5777;BME280;2914;42.668;23.346;2023-03-14T08:31:50;94471.14;;;11.70;41.37
5777;BME280;2914;42.668;23.346;2023-03-14T08:34:19;94465.08;;;11.74;41.75
5777;BME280;2914;42.668;23.346;2023-03-14T08:36:48;94456.88;;;11.81;41.71
5777;BME280;2914;42.668;23.346;2023-03-14T08:39:17;94449.30;;;12.00;41.50
5777;BME280;2914;42.668;23.346;2023-03-14T08:41:46;94456.80;;;12.09;41.29
5777;BME280;2914;42.668;23.346;2023-03-14T08:44:17;94445.57;;;12.33;41.44
5777;BME280;2914;42.668;23.346;2023-03-14T08:46:46;94445.78;;;12.39;39.57
5777;BME280;2914;42.668;23.346;2023-03-14T08:49:15;94440.77;;;12.28;40.43
5777;BME280;2914;42.668;23.346;2023-03-14T08:51:44;94433.19;;;12.37;40.55
5777;BME280;2914;42.668;23.346;2023-03-14T08:54:13;94425.38;;;12.58;40.42
5777;BME280;2914;42.668;23.346;2023-03-14T08:56:43;94428.54;;;12.31;39.40
5777;BME280;2914;42.668;23.346;2023-03-14T08:59:12;94418.64;;;12.37;38.75
5777;BME280;2914;42.668;23.346;2023-03-14T09:01:41;94422.51;;;12.21;39.08
5777;BME280;2914;42.668;23.346;2023-03-14T09:04:12;94416.27;;;12.26;39.61
5777;BME280;2914;42.668;23.346;2023-03-14T09:06:42;94407.89;;;12.09;38.35
5777;BME280;2914;42.668;23.346;2023-03-14T09:09:11;94408.55;;;11.66;39.20
5777;BME280;2914;42.668;23.346;2023-03-14T09:11:41;94400.66;;;11.93;39.62
5777;BME280;2914;42.668;23.346;2023-03-14T09:14:10;94397.22;;;11.56;39.57
5777;BME280;2914;42.668;23.346;2023-03-14T09:16:39;94396.33;;;11.15;39.98
5777;BME280;2914;42.668;23.346;2023-03-14T09:19:08;94392.61;;;11.22;39.86
5777;BME280;2914;42.668;23.346;2023-03-14T09:21:37;94378.89;;;11.36;39.33
5777;BME280;2914;42.668;23.346;2023-03-14T09:24:07;94381.92;;;10.78;39.95
5777;BME280;2914;42.668;23.346;2023-03-14T09:26:36;94371.73;;;10.65;39.99
5777;BME280;2914;42.668;23.346;2023-03-14T09:29:06;94372.14;;;10.74;39.84
5777;BME280;2914;42.668;23.346;2023-03-14T09:31:35;94365.03;;;11.02;39.78
5777;BME280;2914;42.668;23.346;2023-03-14T09:34:04;94361.27;;;11.23;39.31
5777;BME280;2914;42.668;23.346;2023-03-14T09:36:33;94359.28;;;11.39;39.41
5777;BME280;2914;42.668;23.346;2023-03-14T09:39:02;94353.73;;;11.28;39.10
5777;BME280;2914;42.668;23.346;2023-03-14T09:41:33;94348.84;;;11.01;39.26
5777;BME280;2914;42.668;23.346;2023-03-14T09:44:06;94344.19;;;10.95;39.58
5777;BME280;2914;42.668;23.346;2023-03-14T09:46:38;94340.23;;;10.95;39.99
5777;BME280;2914;42.668;23.346;2023-03-14T09:49:19;94332.73;;;11.23;39.67
5777;BME280;2914;42.668;23.346;2023-03-14T09:51:43;94322.52;;;11.28;38.96
5777;BME280;2914;42.668;23.346;2023-03-14T09:54:21;94317.06;;;11.43;39.43
5777;BME280;2914;42.668;23.346;2023-03-14T09:56:49;94312.41;;;11.63;39.63
5777;BME280;2914;42.668;23.346;2023-03-14T09:59:19;94311.23;;;11.62;39.02
5777;BME280;2914;42.668;23.346;2023-03-14T10:01:49;94305.96;;;11.40;38.86
5777;BME280;2914;42.668;23.346;2023-03-14T10:04:20;94299.80;;;11.31;39.06
5777;BME280;2914;42.668;23.346;2023-03-14T10:06:51;94293.81;;;11.07;38.96
5777;BME280;2914;42.668;23.346;2023-03-14T10:09:22;94298.88;;;11.22;39.17
5777;BME280;2914;42.668;23.346;2023-03-14T10:11:54;94288.01;;;11.43;38.94
5777;BME280;2914;42.668;23.346;2023-03-14T10:14:34;94286.14;;;11.62;38.69
5777;BME280;2914;42.668;23.346;2023-03-14T10:17:10;94280.45;;;11.52;39.86
5777;BME280;2914;42.668;23.346;2023-03-14T10:19:49;94282.51;;;11.36;40.26
5777;BME280;2914;42.668;23.346;2023-03-14T10:22:20;94271.28;;;11.38;39.89
5777;BME280;2914;42.668;23.346;2023-03-14T10:24:53;94266.75;;;11.49;40.05
5777;BME280;2914;42.668;23.346;2023-03-14T10:27:27;94251.83;;;11.40;40.86
5777;BME280;2914;42.668;23.346;2023-03-14T10:29:57;94253.59;;;11.31;40.99
5777;BME280;2914;42.668;23.346;2023-03-14T10:32:33;94242.02;;;11.32;41.40
5777;BME280;2914;42.668;23.346;2023-03-14T10:35:17;94237.91;;;11.29;41.90
5777;BME280;2914;42.668;23.346;2023-03-14T10:37:51;94233.73;;;11.23;42.01
5777;BME280;2914;42.668;23.346;2023-03-14T10:40:25;94235.45;;;11.14;42.24
5777;BME280;2914;42.668;23.346;2023-03-14T10:42:56;94219.27;;;11.31;42.49
5777;BME280;2914;42.668;23.346;2023-03-14T10:45:38;94211.92;;;11.47;42.47
5777;BME280;2914;42.668;23.346;2023-03-14T10:48:19;94200.10;;;11.59;42.67
5777;BME280;2914;42.668;23.346;2023-03-14T10:50:54;94198.86;;;11.76;42.47
5777;BME280;2914;42.668;23.346;2023-03-14T10:53:24;94186.84;;;11.85;42.43
5777;BME280;2914;42.668;23.346;2023-03-14T10:55:55;94172.72;;;11.95;42.44
5777;BME280;2914;42.668;23.346;2023-03-14T10:58:27;94171.61;;;12.10;42.64
5777;BME280;2914;42.668;23.346;2023-03-14T11:01:04;94165.30;;;11.94;42.74
5777;BME280;2914;42.668;23.346;2023-03-14T11:03:35;94156.73;;;12.09;42.72
5777;BME280;2914;42.668;23.346;2023-03-14T11:06:09;94160.21;;;12.05;42.45
5777;BME280;2914;42.668;23.346;2023-03-14T11:08:43;94155.42;;;12.13;42.29
5777;BME280;2914;42.668;23.346;2023-03-14T11:11:15;94148.03;;;12.29;41.48
5777;BME280;2914;42.668;23.346;2023-03-14T11:13:50;94141.44;;;12.37;41.84
5777;BME280;2914;42.668;23.346;2023-03-14T11:19:06;94122.92;;;12.41;41.20
5777;BME280;2914;42.668;23.346;2023-03-14T11:21:37;94123.09;;;12.35;41.30
5777;BME280;2914;42.668;23.346;2023-03-14T11:24:24;94112.69;;;12.42;41.20
5777;BME280;2914;42.668;23.346;2023-03-14T11:26:57;94104.25;;;12.55;41.31
5777;BME280;2914;42.668;23.346;2023-03-14T11:29:31;94091.36;;;12.56;41.16
5777;BME280;2914;42.668;23.346;2023-03-14T11:32:02;94081.76;;;12.63;41.09
5777;BME280;2914;42.668;23.346;2023-03-14T11:34:36;94079.10;;;12.76;41.00
5777;BME280;2914;42.668;23.346;2023-03-14T11:37:11;94077.25;;;12.88;40.73
5777;BME280;2914;42.668;23.346;2023-03-14T11:39:40;94066.64;;;13.05;40.30
5777;BME280;2914;42.668;23.346;2023-03-14T11:42:15;94066.02;;;12.90;39.80
5777;BME280;2914;42.668;23.346;2023-03-14T11:44:45;94060.70;;;12.99;39.88
5777;BME280;2914;42.668;23.346;2023-03-14T11:47:18;94060.03;;;13.01;39.79
5777;BME280;2914;42.668;23.346;2023-03-14T11:49:50;94054.55;;;13.15;40.15
5777;BME280;2914;42.668;23.346;2023-03-14T11:52:23;94055.97;;;13.30;40.13
5777;BME280;2914;42.668;23.346;2023-03-14T11:54:56;94049.20;;;13.39;39.68
5777;BME280;2914;42.668;23.346;2023-03-14T11:57:25;94034.14;;;13.36;39.22
5777;BME280;2914;42.668;23.346;2023-03-14T11:59:58;94034.30;;;13.38;39.13
5777;BME280;2914;42.668;23.346;2023-03-14T12:02:33;94028.27;;;13.53;39.26
5777;BME280;2914;42.668;23.346;2023-03-14T12:08:27;94011.27;;;13.74;38.96
5777;BME280;2914;42.668;23.346;2023-03-14T12:10:59;94010.87;;;13.82;38.50
5777;BME280;2914;42.668;23.346;2023-03-14T12:13:31;93998.75;;;13.87;38.50
5777;BME280;2914;42.668;23.346;2023-03-14T12:18:40;93992.88;;;14.00;38.64
5777;BME280;2914;42.668;23.346;2023-03-14T12:21:11;93984.41;;;14.01;38.24
5777;BME280;2914;42.668;23.346;2023-03-14T12:23:44;93972.56;;;14.12;37.71
5777;BME280;2914;42.668;23.346;2023-03-14T12:26:17;93973.02;;;14.19;37.47
5777;BME280;2914;42.668;23.346;2023-03-14T12:28:51;93967.86;;;14.22;37.24
5777;BME280;2914;42.668;23.346;2023-03-14T12:34:33;93952.57;;;14.43;36.79
5777;BME280;2914;42.668;23.346;2023-03-14T12:37:18;93951.80;;;14.38;36.67
5777;BME280;2914;42.668;23.346;2023-03-14T12:39:55;93948.48;;;14.36;36.63
5777;BME280;2914;42.668;23.346;2023-03-14T12:42:37;93940.27;;;14.27;36.40
5777;BME280;2914;42.668;23.346;2023-03-14T12:45:24;93940.97;;;14.25;36.50
5777;BME280;2914;42.668;23.346;2023-03-14T12:48:07;93936.36;;;14.19;36.29
5777;BME280;2914;42.668;23.346;2023-03-14T12:50:41;93937.72;;;14.15;36.27
5777;BME280;2914;42.668;23.346;2023-03-14T12:53:50;93933.30;;;14.11;36.36
5777;BME280;2914;42.668;23.346;2023-03-14T12:56:25;93927.84;;;14.08;36.33
5777;BME280;2914;42.668;23.346;2023-03-14T12:59:17;93924.80;;;14.16;36.54
5777;BME280;2914;42.668;23.346;2023-03-14T13:01:54;93915.44;;;14.24;36.20
5777;BME280;2914;42.668;23.346;2023-03-14T13:04:26;93915.55;;;14.31;35.83
5777;BME280;2914;42.668;23.346;2023-03-14T13:06:58;93908.58;;;14.30;35.91
5777;BME280;2914;42.668;23.346;2023-03-14T13:12:43;93895.09;;;14.35;35.69
5777;BME280;2914;42.668;23.346;2023-03-14T13:15:19;93893.00;;;14.31;35.40
5777;BME280;2914;42.668;23.346;2023-03-14T13:17:49;93881.64;;;14.37;35.51
5777;BME280;2914;42.668;23.346;2023-03-14T13:20:23;93877.42;;;14.47;35.36
5777;BME280;2914;42.668;23.346;2023-03-14T13:22:53;93872.37;;;14.52;35.25
5777;BME280;2914;42.668;23.346;2023-03-14T13:25:22;93875.27;;;14.61;35.38
5777;BME280;2914;42.668;23.346;2023-03-14T13:27:53;93862.31;;;14.62;34.56
5777;BME280;2914;42.668;23.346;2023-03-14T13:30:25;93859.52;;;14.59;34.42
5777;BME280;2914;42.668;23.346;2023-03-14T13:32:55;93856.52;;;14.63;34.45
5777;BME280;2914;42.668;23.346;2023-03-14T13:35:27;93852.83;;;14.68;34.75
5777;BME280;2914;42.668;23.346;2023-03-14T13:37:59;93852.45;;;14.71;34.36
5777;BME280;2914;42.668;23.346;2023-03-14T13:40:32;93843.02;;;14.68;34.32
5777;BME280;2914;42.668;23.346;2023-03-14T13:43:04;93848.04;;;14.78;34.04
5777;BME280;2914;42.668;23.346;2023-03-14T13:45:45;93832.11;;;14.78;33.74
5777;BME280;2914;42.668;23.346;2023-03-14T13:48:15;93828.91;;;14.83;33.80
5777;BME280;2914;42.668;23.346;2023-03-14T13:50:51;93816.78;;;14.84;33.79
5777;BME280;2914;42.668;23.346;2023-03-14T13:53:21;93820.30;;;14.81;33.84
5777;BME280;2914;42.668;23.346;2023-03-14T13:55:51;93806.30;;;14.87;33.92
5777;BME280;2914;42.668;23.346;2023-03-14T13:58:29;93804.64;;;14.86;33.96
5777;BME280;2914;42.668;23.346;2023-03-14T14:01:06;93800.93;;;14.91;33.97
5777;BME280;2914;42.668;23.346;2023-03-14T14:03:37;93795.42;;;14.92;33.91
5777;BME280;2914;42.668;23.346;2023-03-14T14:06:23;93794.86;;;14.97;33.92
5777;BME280;2914;42.668;23.346;2023-03-14T14:08:42;93787.73;;;14.98;33.76
5777;BME280;2914;42.668;23.346;2023-03-14T14:11:16;93778.98;;;14.93;33.66
5777;BME280;2914;42.668;23.346;2023-03-14T14:13:45;93772.05;;;14.92;33.79
5777;BME280;2914;42.668;23.346;2023-03-14T14:16:16;93773.37;;;14.92;33.67
5777;BME280;2914;42.668;23.346;2023-03-14T14:18:47;93766.03;;;14.94;33.39
5777;BME280;2914;42.668;23.346;2023-03-14T14:21:16;93758.83;;;14.88;33.26
5777;BME280;2914;42.668;23.346;2023-03-14T14:23:46;93760.45;;;14.89;33.40
5777;BME280;2914;42.668;23.346;2023-03-14T14:26:17;93750.92;;;14.84;33.43
5777;BME280;2914;42.668;23.346;2023-03-14T14:28:48;93748.56;;;14.85;33.74
5777;BME280;2914;42.668;23.346;2023-03-14T14:31:20;93744.28;;;14.84;33.41
5777;BME280;2914;42.668;23.346;2023-03-14T14:33:57;93729.84;;;14.82;33.77
5777;BME280;2914;42.668;23.346;2023-03-14T14:36:29;93728.11;;;14.89;33.72
5777;BME280;2914;42.668;23.346;2023-03-14T14:39:03;93724.11;;;14.79;33.44
5777;BME280;2914;42.668;23.346;2023-03-14T14:41:34;93719.19;;;14.75;33.49
5777;BME280;2914;42.668;23.346;2023-03-14T14:44:05;93714.50;;;14.78;33.46